Time;durP1;ratioP1;P1;durP2;ratioP2;P2;SDS_P1;SDS_P2;PMS_P1;PMS_P2;Temp;Humidity;BMP_temperature;BMP_pressure;BME280_temperature;BME280_humidity;BME280_pressure;Samples;Min_cycle;Max_cycle;Signal;HPM_P1;HPM_P2
2022/07/09 00:00:54;;;;;;;7.15;5.35;;;;;;;17.71;69.50;102747.88;5065798;28;20027;-74
2022/07/09 00:03:19;;;;;;;9.57;5.47;;;;;;;17.68;68.67;102737.44;5060511;28;20111;-74
2022/07/09 00:05:44;;;;;;;8.35;5.30;;;;;;;17.66;68.90;102744.50;5065896;28;20555;-74
2022/07/09 00:08:10;;;;;;;7.68;4.95;;;;;;;17.58;69.46;102735.94;5065490;28;20044;-74
2022/07/09 00:10:35;;;;;;;6.65;5.05;;;;;;;17.55;69.89;102741.28;5064356;28;20021;-74
2022/07/09 00:13:00;;;;;;;5.97;5.00;;;;;;;17.46;69.80;102734.47;5061860;28;20136;-74
2022/07/09 00:15:26;;;;;;;8.15;6.00;;;;;;;17.38;70.22;102728.53;5063144;28;20020;-74
2022/07/09 00:17:51;;;;;;;7.78;5.68;;;;;;;17.32;70.23;102729.53;5064200;28;20031;-74
2022/07/09 00:20:17;;;;;;;8.90;5.75;;;;;;;17.25;70.69;102734.09;5063897;28;20387;-74
2022/07/09 00:22:42;;;;;;;8.52;5.97;;;;;;;17.19;70.81;102730.75;5061458;28;20095;-73
2022/07/09 00:25:08;;;;;;;7.75;5.63;;;;;;;17.13;71.02;102731.75;5038595;28;20032;-74
2022/07/09 00:27:33;;;;;;;7.43;6.40;;;;;;;17.09;71.19;102738.81;5059054;28;20560;-74
2022/07/09 00:29:58;;;;;;;9.00;6.05;;;;;;;17.05;71.50;102737.19;5063345;28;20047;-73
2022/07/09 00:32:24;;;;;;;8.25;5.90;;;;;;;17.03;71.88;102728.47;5061833;28;20047;-74
2022/07/09 00:34:49;;;;;;;8.45;5.60;;;;;;;17.02;72.25;102737.25;5064108;28;20483;-74
2022/07/09 00:37:14;;;;;;;7.55;5.82;;;;;;;17.05;72.24;102737.19;5063671;28;20023;-74
2022/07/09 00:39:39;;;;;;;8.52;6.43;;;;;;;17.04;72.92;102734.56;5061561;28;20067;-74
2022/07/09 00:42:06;;;;;;;10.13;6.30;;;;;;;17.04;72.64;102735.47;5059204;28;20402;-74
2022/07/09 00:44:32;;;;;;;8.60;6.32;;;;;;;17.05;72.77;102736.31;5064470;28;20025;-74
2022/07/09 00:46:58;;;;;;;8.50;6.22;;;;;;;17.05;72.86;102736.31;5063150;28;20023;-74
2022/07/09 00:49:24;;;;;;;9.30;6.28;;;;;;;17.03;72.76;102728.47;5060261;28;20037;-74
2022/07/09 00:51:50;;;;;;;8.82;6.82;;;;;;;17.03;72.68;102728.47;5061088;28;20025;-74
2022/07/09 00:54:16;;;;;;;8.63;5.93;;;;;;;17.01;71.25;102729.38;5063139;28;20199;-74
2022/07/09 00:56:42;;;;;;;9.07;6.15;;;;;;;16.97;70.40;102729.47;5060737;28;20527;-74
2022/07/09 00:59:12;;;;;;;7.45;5.57;;;;;;;16.94;70.92;102729.50;5060103;28;20025;-74
2022/07/09 01:01:38;;;;;;;7.70;6.38;;;;;;;16.88;71.95;102724.38;5045198;28;20024;-73
2022/07/09 01:04:03;;;;;;;9.02;6.32;;;;;;;16.84;71.95;102728.84;5062071;28;20028;-74
2022/07/09 01:06:29;;;;;;;8.55;6.13;;;;;;;16.79;71.78;102732.47;5064036;28;20445;-74
2022/07/09 01:08:54;;;;;;;8.10;6.10;;;;;;;16.75;71.96;102723.78;5065244;28;20036;-74
2022/07/09 01:11:19;;;;;;;8.35;6.00;;;;;;;16.68;72.13;102730.91;5058610;28;20020;-74
2022/07/09 01:13:46;;;;;;;10.45;6.60;;;;;;;16.61;72.31;102720.56;5062075;28;20036;-74
2022/07/09 01:16:15;;;;;;;7.97;6.13;;;;;;;16.57;72.66;102721.56;5058922;28;20035;-73
2022/07/09 01:18:44;;;;;;;6.90;6.20;;;;;;;16.49;72.25;102716.44;5064327;28;20036;-74
2022/07/09 01:21:09;;;;;;;10.55;6.63;;;;;;;16.44;72.30;102719.16;5059800;28;20059;-74
2022/07/09 01:23:34;;;;;;;7.40;6.30;;;;;;;16.41;72.44;102719.22;5056621;28;20056;-74
2022/07/09 01:26:00;;;;;;;10.40;6.55;;;;;;;16.37;72.58;102712.31;5062581;28;20363;-74
2022/07/09 01:28:26;;;;;;;9.48;7.20;;;;;;;16.33;72.79;102708.00;5059226;28;20024;-74
2022/07/09 01:30:52;;;;;;;9.00;7.45;;;;;;;16.28;73.34;102716.00;5062939;28;20454;-74
2022/07/09 01:33:17;;;;;;;7.28;6.55;;;;;;;16.28;72.55;102709.84;5057671;28;20055;-74
2022/07/09 01:35:42;;;;;;;8.68;6.45;;;;;;;16.28;72.37;102712.50;5065004;28;20029;-73
2022/07/09 01:38:08;;;;;;;8.98;7.20;;;;;;;16.22;73.02;102708.22;5056294;28;20617;-74
2022/07/09 01:40:33;;;;;;;9.05;7.05;;;;;;;16.18;73.69;102707.44;5058011;28;20106;-74
2022/07/09 01:42:59;;;;;;;10.13;7.25;;;;;;;16.15;73.45;102703.97;5059173;28;20032;-74
2022/07/09 01:45:24;;;;;;;9.32;7.32;;;;;;;16.09;73.67;102702.34;5060445;28;20016;-74
2022/07/09 01:47:49;;;;;;;9.55;7.35;;;;;;;16.09;73.88;102704.97;5061168;28;20024;-74
2022/07/09 01:50:14;;;;;;;8.77;7.22;;;;;;;16.05;73.58;102698.91;5059904;28;20036;-74
2022/07/09 01:52:40;;;;;;;7.57;6.22;;;;;;;16.01;73.21;102691.97;5061051;28;20147;-73
2022/07/09 01:55:06;;;;;;;7.40;6.15;;;;;;;15.99;73.56;102695.53;5064329;28;20040;-74
2022/07/09 01:57:31;;;;;;;8.82;6.90;;;;;;;15.96;73.55;102685.97;5063066;28;20099;-74
2022/07/09 01:59:56;;;;;;;8.57;6.82;;;;;;;15.95;74.03;102681.63;5060485;28;20043;-74
2022/07/09 02:02:22;;;;;;;9.80;7.22;;;;;;;15.93;74.26;102693.91;5058603;28;20451;-74
2022/07/09 02:04:47;;;;;;;8.55;7.18;;;;;;;15.90;74.67;102692.19;5064273;28;20028;-73
2022/07/09 02:07:13;;;;;;;7.90;6.50;;;;;;;15.90;74.36;102692.19;5059801;28;20035;-74
2022/07/09 02:09:40;;;;;;;9.70;7.35;;;;;;;15.86;74.21;102685.28;5059408;28;20040;-74
2022/07/09 02:12:06;;;;;;;8.45;6.90;;;;;;;15.83;73.87;102685.31;5060229;28;20036;-74
2022/07/09 02:14:31;;;;;;;7.95;6.30;;;;;;;15.78;73.49;102685.38;5060842;28;20550;-74
2022/07/09 02:16:56;;;;;;;9.60;7.20;;;;;;;15.77;74.27;102680.16;5057860;28;20028;-74
2022/07/09 02:19:22;;;;;;;8.38;6.22;;;;;;;15.75;74.03;102681.94;5059902;28;20108;-74
2022/07/09 02:21:48;;;;;;;7.43;6.70;;;;;;;15.71;74.68;102672.41;5053303;28;20525;-74
2022/07/09 02:24:14;;;;;;;8.48;7.03;;;;;;;15.69;74.50;102679.44;5061182;28;20111;-74
2022/07/09 02:26:39;;;;;;;7.72;6.93;;;;;;;15.68;74.75;102675.09;5042614;28;20431;-73
2022/07/09 02:29:04;;;;;;;9.80;7.20;;;;;;;15.67;75.42;102683.84;5060019;28;20075;-73
2022/07/09 02:31:30;;;;;;;8.55;7.13;;;;;;;15.67;75.63;102683.84;5059062;28;20035;-74
2022/07/09 02:33:56;;;;;;;11.13;7.68;;;;;;;15.67;75.66;102678.59;5059572;28;20653;-73
2022/07/09 02:36:22;;;;;;;12.43;7.65;;;;;;;15.67;75.91;102683.84;5061439;28;20518;-74
2022/07/09 02:38:47;;;;;;;11.38;7.72;;;;;;;15.67;76.13;102675.97;5062419;28;20120;-74
2022/07/09 02:41:12;;;;;;;10.63;7.47;;;;;;;15.69;76.38;102666.31;5056960;28;20495;-74
2022/07/09 02:43:38;;;;;;;10.25;7.40;;;;;;;15.70;76.23;102663.66;5058271;28;20100;-73
2022/07/09 02:46:04;;;;;;;13.60;7.70;;;;;;;15.70;76.49;102662.81;5056436;28;20035;-74
2022/07/09 02:48:30;;;;;;;11.07;7.72;;;;;;;15.70;76.46;102662.81;5055629;28;20025;-74
2022/07/09 02:50:55;;;;;;;9.38;7.38;;;;;;;15.66;75.64;102656.72;5039312;28;20104;-74
2022/07/09 02:53:20;;;;;;;8.55;7.07;;;;;;;15.61;75.66;102659.44;5057811;28;20020;-74
2022/07/09 02:55:46;;;;;;;10.70;7.40;;;;;;;15.59;75.42;102652.50;5067345;28;20056;-74
2022/07/09 02:58:12;;;;;;;8.07;6.88;;;;;;;15.54;75.01;102652.56;5062186;28;20471;-74
2022/07/09 03:00:41;;;;;;;9.30;7.68;;;;;;;15.49;75.34;102649.16;5058575;28;20021;-74
2022/07/09 03:03:07;;;;;;;9.75;6.93;;;;;;;15.45;75.21;102656.25;5059812;28;20028;-74
2022/07/09 03:05:33;;;;;;;9.43;7.72;;;;;;;15.42;75.44;102658.91;5056781;28;20025;-73
2022/07/09 03:07:58;;;;;;;10.88;7.35;;;;;;;15.39;75.66;102656.31;5063940;28;20690;-74
2022/07/09 03:10:24;;;;;;;10.00;7.18;;;;;;;15.37;75.85;102658.09;5058621;28;20031;-74
2022/07/09 03:12:49;;;;;;;10.45;6.93;;;;;;;15.35;76.17;102659.03;5060634;28;20029;-73
2022/07/09 03:15:16;;;;;;;10.38;7.15;;;;;;;15.31;75.86;102651.22;5045495;28;20028;-73
2022/07/09 03:17:42;;;;;;;13.07;7.20;;;;;;;15.32;76.20;102657.31;5043798;28;20017;-73
2022/07/09 03:20:08;;;;;;;9.85;7.80;;;;;;;15.30;76.42;102654.72;5062486;28;20032;-73
2022/07/09 03:22:34;;;;;;;9.90;7.85;;;;;;;15.29;76.43;102652.09;5061945;28;20063;-73
2022/07/09 03:24:59;;;;;;;10.40;9.02;;;;;;;15.30;76.93;102653.84;5056874;28;20060;-73
2022/07/09 03:27:24;;;;;;;11.88;8.52;;;;;;;15.32;77.28;102658.19;5062065;28;20045;-74
2022/07/09 03:29:50;;;;;;;10.90;8.35;;;;;;;15.34;77.35;102658.16;5061580;28;20033;-74
2022/07/09 03:32:15;;;;;;;11.32;8.70;;;;;;;15.36;77.49;102664.25;5064216;28;20111;-74
2022/07/09 03:34:40;;;;;;;11.73;8.52;;;;;;;15.37;77.58;102665.13;5059787;28;20033;-74
2022/07/09 03:37:06;;;;;;;11.63;8.95;;;;;;;15.35;77.42;102667.75;5066810;28;20029;-74
2022/07/09 03:39:31;;;;;;;14.82;8.55;;;;;;;15.36;77.63;102666.00;5061425;28;20128;-74
2022/07/09 03:41:56;;;;;;;10.13;7.97;;;;;;;15.35;76.27;102656.41;5058310;28;20112;-74
2022/07/09 03:44:21;;;;;;;10.13;7.22;;;;;;;15.33;75.75;102653.78;5046278;28;20086;-74
2022/07/09 03:46:47;;;;;;;11.32;8.30;;;;;;;15.31;76.87;102656.47;5065295;28;20353;-73
2022/07/09 03:49:12;;;;;;;10.40;8.85;;;;;;;15.31;77.44;102658.19;5067576;28;20036;-74
2022/07/09 03:51:38;;;;;;;10.27;8.02;;;;;;;15.31;75.79;102652.97;5061553;28;20020;-74
2022/07/09 03:54:03;;;;;;;10.32;6.93;;;;;;;15.28;75.07;102656.50;5060552;28;20493;-74
2022/07/09 03:56:29;;;;;;;10.07;7.32;;;;;;;15.26;75.78;102657.44;5058252;28;20028;-73
2022/07/09 03:58:54;;;;;;;12.98;7.78;;;;;;;15.23;76.62;102658.31;5062037;28;20017;-73
2022/07/09 04:01:19;;;;;;;10.20;7.15;;;;;;;15.22;76.24;102659.22;5058291;28;20028;-73
2022/07/09 04:03:45;;;;;;;11.18;7.57;;;;;;;15.18;75.68;102650.53;5058044;28;20021;-73
2022/07/09 04:06:11;;;;;;;10.10;7.90;;;;;;;15.14;75.76;102653.25;5061939;28;20028;-73
2022/07/09 04:08:36;;;;;;;9.00;7.32;;;;;;;15.08;75.03;102648.09;5062166;28;20036;-74
2022/07/09 04:11:01;;;;;;;9.10;7.25;;;;;;;15.05;75.44;102653.38;5061846;28;20067;-73
2022/07/09 04:13:27;;;;;;;8.52;7.22;;;;;;;15.01;75.90;102653.44;5062845;28;20544;-73
2022/07/09 04:15:52;;;;;;;11.80;7.20;;;;;;;15.01;75.68;102653.44;5060259;28;20035;-74
2022/07/09 04:18:17;;;;;;;11.90;7.63;;;;;;;15.00;76.16;102651.72;5060058;28;20021;-74
2022/07/09 04:20:42;;;;;;;10.23;7.20;;;;;;;14.98;76.20;102655.22;5061627;28;20031;-74
2022/07/09 04:23:08;;;;;;;10.15;7.70;;;;;;;14.99;76.42;102649.97;5062282;28;20035;-73
2022/07/09 04:25:33;;;;;;;9.43;7.10;;;;;;;15.00;76.56;102654.34;5057853;28;20036;-74
2022/07/09 04:28:01;;;;;;;9.88;7.43;;;;;;;14.99;76.81;102649.97;5055718;28;20028;-73
2022/07/09 04:30:27;;;;;;;9.63;7.63;;;;;;;15.00;77.04;102651.72;5053399;28;20464;-73
2022/07/09 04:32:53;;;;;;;10.77;8.05;;;;;;;15.02;76.38;102657.81;5061109;28;20028;-74
2022/07/09 04:35:18;;;;;;;9.65;7.45;;;;;;;15.01;76.42;102650.81;5058127;28;20432;-74
2022/07/09 04:37:43;;;;;;;8.85;7.43;;;;;;;14.99;76.65;102644.72;5057790;28;20077;-73
2022/07/09 04:40:09;;;;;;;11.00;8.07;;;;;;;14.99;76.92;102647.34;5055000;28;20047;-73
2022/07/09 04:42:34;;;;;;;10.65;7.90;;;;;;;14.99;76.93;102644.72;5060514;28;20365;-74
2022/07/09 04:45:00;;;;;;;10.90;8.25;;;;;;;14.98;77.16;102648.25;5055452;28;20383;-73
2022/07/09 04:47:26;;;;;;;9.43;7.13;;;;;;;15.00;76.27;102648.22;5062265;28;20165;-73
2022/07/09 04:49:51;;;;;;;9.02;7.35;;;;;;;15.00;75.66;102641.22;5061807;28;20028;-74
2022/07/09 04:52:19;;;;;;;8.50;7.25;;;;;;;14.99;76.22;102646.47;5055910;28;20111;-74
2022/07/09 04:54:45;;;;;;;9.10;7.10;;;;;;;14.99;76.94;102644.72;5059591;28;20025;-74
2022/07/09 04:57:11;;;;;;;8.43;6.93;;;;;;;14.99;76.74;102642.13;5055108;28;20056;-74
2022/07/09 04:59:36;;;;;;;9.15;7.47;;;;;;;15.02;77.02;102639.44;5054156;28;20391;-73
2022/07/09 05:02:02;;;;;;;11.32;7.68;;;;;;;15.06;77.27;102644.63;5054379;28;20060;-74
2022/07/09 05:04:27;;;;;;;10.50;7.50;;;;;;;15.09;77.36;102650.69;5060718;28;20420;-73
2022/07/09 05:06:52;;;;;;;11.27;7.50;;;;;;;15.18;77.67;102642.69;5057963;28;20067;-73
2022/07/09 05:09:17;;;;;;;12.75;7.70;;;;;;;15.27;78.09;102644.28;5057163;28;20075;-74
2022/07/09 05:11:43;;;;;;;10.95;8.00;;;;;;;15.37;78.11;102642.38;5053837;28;20032;-74
2022/07/09 05:14:08;;;;;;;10.05;8.20;;;;;;;15.49;78.31;102638.69;5055936;28;20078;-74
2022/07/09 05:16:34;;;;;;;14.65;8.55;;;;;;;15.57;78.40;102642.00;5055914;28;20028;-74
2022/07/09 05:18:59;;;;;;;13.38;8.63;;;;;;;15.63;78.37;102643.66;5056814;28;20135;-73
2022/07/09 05:21:25;;;;;;;13.40;8.73;;;;;;;15.66;78.40;102635.75;5057619;28;20028;-73
2022/07/09 05:23:50;;;;;;;12.68;9.73;;;;;;;15.71;78.67;102633.06;5058623;28;20032;-73
2022/07/09 05:26:15;;;;;;;10.43;8.75;;;;;;;15.75;78.84;102630.34;5056859;28;20446;-74
2022/07/09 05:28:41;;;;;;;12.02;9.10;;;;;;;15.82;79.25;102625.84;5057037;28;20021;-73
2022/07/09 05:31:06;;;;;;;11.38;8.82;;;;;;;15.90;78.91;102628.34;5059845;28;20028;-73
2022/07/09 05:33:32;;;;;;;13.15;9.27;;;;;;;15.98;79.07;102626.41;5054524;28;20060;-73
2022/07/09 05:35:57;;;;;;;13.57;10.07;;;;;;;16.08;79.47;102632.34;5060952;28;20483;-74
2022/07/09 05:38:23;;;;;;;15.93;10.48;;;;;;;16.17;79.40;102626.91;5060954;28;20032;-74
2022/07/09 05:40:48;;;;;;;12.40;9.93;;;;;;;16.27;79.29;102622.34;5059315;28;20037;-74
2022/07/09 05:43:14;;;;;;;15.93;11.77;;;;;;;16.36;79.47;102631.78;5062408;28;20029;-73
2022/07/09 05:45:39;;;;;;;14.88;11.20;;;;;;;16.43;79.02;102622.84;5042252;28;20025;-74
2022/07/09 05:48:04;;;;;;;15.82;11.50;;;;;;;16.50;79.01;102631.47;5059652;28;20396;-74
2022/07/09 05:50:30;;;;;;;18.00;12.32;;;;;;;16.53;79.08;102621.78;5060918;28;20031;-74
2022/07/09 05:52:55;;;;;;;17.08;12.32;;;;;;;16.57;78.65;102621.72;5060775;28;20021;-74
2022/07/09 05:55:20;;;;;;;18.52;12.77;;;;;;;16.58;79.07;102613.78;5059660;28;20102;-74
2022/07/09 05:57:46;;;;;;;17.20;12.85;;;;;;;16.62;79.16;102615.44;5060524;28;20020;-74
2022/07/09 06:00:11;;;;;;;18.92;12.85;;;;;;;16.65;79.31;102622.38;5061193;28;20391;-74
2022/07/09 06:02:37;;;;;;;18.55;13.07;;;;;;;16.67;79.15;102620.59;5060678;28;20044;-74
2022/07/09 06:05:03;;;;;;;20.40;13.40;;;;;;;16.71;79.33;102632.78;5057106;28;20029;-73
2022/07/09 06:07:28;;;;;;;19.73;14.15;;;;;;;16.76;79.79;102623.00;5062549;28;20032;-74
2022/07/09 06:09:53;;;;;;;19.67;15.13;;;;;;;16.81;79.08;102634.28;5058654;28;20024;-74
2022/07/09 06:12:19;;;;;;;18.58;14.40;;;;;;;16.85;78.79;102640.31;5058621;28;20098;-73
2022/07/09 06:14:44;;;;;;;21.20;15.45;;;;;;;16.89;79.07;102635.88;5060547;28;20624;-74
2022/07/09 06:17:09;;;;;;;22.50;15.93;;;;;;;16.94;79.50;102636.59;5059819;28;20107;-74
2022/07/09 06:19:35;;;;;;;26.25;15.77;;;;;;;17.00;79.64;102639.13;5059763;28;20384;-74
2022/07/09 06:22:01;;;;;;;23.70;16.50;;;;;;;17.06;79.14;102628.47;5057523;28;20028;-73
2022/07/09 06:24:27;;;;;;;20.48;14.90;;;;;;;17.13;79.30;102643.19;5059827;28;20020;-73
2022/07/09 06:26:52;;;;;;;20.80;15.75;;;;;;;17.21;78.55;102639.50;5061354;28;20031;-74
2022/07/09 06:29:18;;;;;;;20.92;15.30;;;;;;;17.25;78.64;102639.38;5058194;28;20130;-74
2022/07/09 06:31:44;;;;;;;22.95;16.13;;;;;;;17.31;78.45;102641.00;5059674;28;20024;-74
2022/07/09 06:34:10;;;;;;;22.10;16.30;;;;;;;17.38;78.40;102649.59;5060379;28;20108;-74
2022/07/09 06:36:35;;;;;;;20.77;15.52;;;;;;;17.40;78.08;102648.66;5062220;28;20048;-74
2022/07/09 06:41:45;;;;;;;19.80;15.00;;;;;;;17.44;77.98;102645.03;5056278;28;20116;-74
2022/07/09 06:44:10;;;;;;;21.23;16.25;;;;;;;17.47;77.89;102645.88;5052181;28;20036;-74
2022/07/09 06:46:35;;;;;;;21.98;16.63;;;;;;;17.48;76.88;102650.22;5055624;28;20043;-74
2022/07/09 06:49:01;;;;;;;21.08;15.85;;;;;;;17.48;77.31;102651.09;5055173;28;20084;-74
2022/07/09 06:51:26;;;;;;;21.40;16.67;;;;;;;17.52;77.63;102649.25;5037475;28;20021;-74
2022/07/09 06:53:51;;;;;;;21.27;15.98;;;;;;;17.58;78.10;102646.47;5059932;28;20021;-74
2022/07/09 06:56:16;;;;;;;21.05;16.23;;;;;;;17.63;77.62;102644.56;5063485;28;20032;-73
2022/07/09 06:58:42;;;;;;;26.48;17.45;;;;;;;17.68;77.19;102645.31;5062059;28;20032;-74
2022/07/09 07:01:07;;;;;;;23.23;15.88;;;;;;;17.74;77.68;102645.16;5059434;28;20480;-74
2022/07/09 07:03:32;;;;;;;19.70;15.05;;;;;;;17.83;78.15;102640.53;5058826;28;20052;-74
2022/07/09 07:05:57;;;;;;;20.88;14.98;;;;;;;17.88;76.82;102636.00;5060788;28;20044;-74
2022/07/09 07:08:23;;;;;;;19.40;14.52;;;;;;;17.95;77.32;102644.59;5061055;28;20591;-74
2022/07/09 07:10:48;;;;;;;19.27;14.43;;;;;;;17.97;76.32;102643.63;5055206;28;20025;-74
2022/07/09 07:13:13;;;;;;;18.80;14.68;;;;;;;18.02;76.34;102636.50;5051561;28;20060;-74
2022/07/09 07:15:39;;;;;;;20.90;15.23;;;;;;;18.08;75.85;102648.63;5052600;28;20037;-74
2022/07/09 07:18:04;;;;;;;17.60;12.32;;;;;;;18.14;75.44;102645.81;5057490;28;20032;-74
2022/07/09 07:20:29;;;;;;;19.15;13.50;;;;;;;18.23;75.63;102636.78;5057858;28;20387;-74
2022/07/09 07:22:54;;;;;;;20.10;12.95;;;;;;;18.32;76.25;102631.25;5057191;28;20101;-74
2022/07/09 07:25:20;;;;;;;16.55;13.35;;;;;;;18.40;76.49;102638.06;5056436;28;20032;-75
2022/07/09 07:27:45;;;;;;;13.25;10.18;;;;;;;18.49;74.56;102643.03;5057770;28;20036;-74
2022/07/09 07:30:10;;;;;;;15.40;12.43;;;;;;;18.56;74.76;102644.59;5057334;28;20072;-74
2022/07/09 07:32:36;;;;;;;15.95;12.73;;;;;;;18.65;74.35;102646.94;5060807;28;20192;-74
2022/07/09 07:35:02;;;;;;;17.60;13.30;;;;;;;18.75;75.28;102646.66;5059122;28;20070;-74
2022/07/09 07:37:28;;;;;;;17.95;12.88;;;;;;;18.79;73.55;102648.25;5057756;28;20036;-74
2022/07/09 07:39:53;;;;;;;19.15;13.15;;;;;;;18.85;73.59;102647.22;5060360;28;20053;-74
2022/07/09 07:42:18;;;;;;;18.38;13.23;;;;;;;18.91;73.29;102654.94;5058014;28;20037;-74
2022/07/09 07:44:43;;;;;;;14.18;11.35;;;;;;;18.93;72.82;102643.44;5060199;28;21100;-74
2022/07/09 07:47:09;;;;;;;15.43;11.07;;;;;;;18.98;72.09;102647.72;5060953;28;20039;-74
2022/07/09 07:49:34;;;;;;;13.68;10.00;;;;;;;19.01;71.60;102644.97;5060543;28;20047;-74
2022/07/09 07:51:59;;;;;;;12.05;9.50;;;;;;;19.01;71.99;102639.69;5054204;28;20352;-74
2022/07/09 07:54:25;;;;;;;16.98;11.45;;;;;;;19.04;73.58;102647.53;5036658;28;20032;-74
2022/07/09 07:56:50;;;;;;;11.70;9.43;;;;;;;19.03;71.40;102651.94;5055753;28;20494;-74
2022/07/09 07:59:16;;;;;;;12.25;8.43;;;;;;;19.03;70.72;102648.44;5054253;28;20036;-74
2022/07/09 08:01:42;;;;;;;10.23;7.95;;;;;;;19.06;70.42;102645.69;5050864;28;20067;-74
2022/07/09 08:04:07;;;;;;;10.30;8.18;;;;;;;19.09;70.48;102640.31;5054141;28;20123;-74
2022/07/09 08:06:34;;;;;;;11.15;8.52;;;;;;;19.17;70.61;102637.44;5053675;28;20032;-74
2022/07/09 08:09:03;;;;;;;10.50;8.32;;;;;;;19.26;70.40;102637.13;5055052;28;20029;-74
2022/07/09 08:11:28;;;;;;;11.60;8.40;;;;;;;19.33;69.05;102645.69;5049674;28;20044;-74
2022/07/09 08:13:53;;;;;;;11.05;8.52;;;;;;;19.43;69.16;102628.63;5050301;28;20033;-74
2022/07/09 08:16:19;;;;;;;14.00;8.40;;;;;;;19.54;68.88;102615.91;5057628;28;20078;-74
2022/07/09 08:18:45;;;;;;;11.07;8.70;;;;;;;19.64;67.61;102611.16;5052868;28;20028;-74
2022/07/09 08:21:10;;;;;;;11.07;8.18;;;;;;;19.72;66.96;102605.59;5055681;28;20041;-74
2022/07/09 08:23:51;;;;;;;11.50;8.25;;;;;;;19.77;67.63;102600.16;5052893;28;20466;-74
2022/07/09 08:26:26;;;;;;;12.25;8.02;;;;;;;19.80;67.46;102598.28;5054867;28;20395;-74
2022/07/09 08:28:52;;;;;;;10.57;8.13;;;;;;;19.91;68.43;102597.03;5055146;28;20046;-74
2022/07/09 08:31:19;;;;;;;8.43;7.20;;;;;;;19.97;65.89;102595.03;5053790;28;20542;-74
2022/07/09 08:33:45;;;;;;;11.27;7.85;;;;;;;20.09;68.54;102585.78;5054566;28;20043;-74
2022/07/09 08:36:10;;;;;;;12.80;9.00;;;;;;;20.20;68.72;102581.84;5053918;28;20061;-74
2022/07/09 08:38:36;;;;;;;12.82;8.65;;;;;;;20.31;69.54;102575.22;5053465;28;20798;-75
2022/07/09 08:41:03;;;;;;;12.57;9.25;;;;;;;20.40;66.93;102583.72;5055342;28;20048;-74
2022/07/09 08:43:32;;;;;;;11.38;8.60;;;;;;;20.49;66.39;102575.41;5050893;28;20210;-74
2022/07/09 08:45:57;;;;;;;9.32;7.55;;;;;;;20.58;65.76;102577.69;5056681;28;20060;-74
2022/07/09 08:48:23;;;;;;;9.38;7.22;;;;;;;20.63;65.13;102575.72;5057690;28;20055;-74
2022/07/09 08:50:49;;;;;;;10.02;7.65;;;;;;;20.66;64.04;102574.75;5054364;28;20028;-74
2022/07/09 08:53:18;;;;;;;11.20;8.35;;;;;;;20.70;64.76;102578.13;5059848;28;20489;-74
2022/07/09 08:55:44;;;;;;;13.18;8.48;;;;;;;20.74;65.38;102571.78;5060313;28;20031;-74
2022/07/09 08:58:12;;;;;;;9.95;8.70;;;;;;;20.77;65.73;102579.59;5056269;28;20074;-74
2022/07/09 09:00:37;;;;;;;11.43;8.90;;;;;;;20.78;64.63;102578.69;5056805;28;20027;-75
2022/07/09 09:03:02;;;;;;;10.30;8.18;;;;;;;20.84;65.27;102582.84;5040157;28;20033;-74
2022/07/09 09:05:28;;;;;;;11.70;8.93;;;;;;;20.86;62.25;102586.31;5053959;28;21558;-74
2022/07/09 09:07:53;;;;;;;11.68;8.65;;;;;;;20.84;62.95;102582.84;5059367;28;20056;-75
2022/07/09 09:10:26;;;;;;;11.55;9.18;;;;;;;20.83;64.19;102583.81;5060242;28;20033;-74
2022/07/09 09:12:56;;;;;;;11.10;9.13;;;;;;;20.82;63.27;102585.56;5060556;28;20082;-75
2022/07/09 09:15:21;;;;;;;13.15;9.43;;;;;;;20.79;63.03;102590.16;5060566;28;20029;-75
2022/07/09 09:17:47;;;;;;;13.73;9.65;;;;;;;20.77;63.71;102587.53;5055931;28;20027;-75
2022/07/09 09:20:16;;;;;;;12.82;9.52;;;;;;;20.74;63.54;102582.38;5060289;28;20075;-74
2022/07/09 09:22:49;;;;;;;11.05;8.77;;;;;;;20.75;63.93;102584.97;5061647;28;20418;-75
2022/07/09 09:25:19;;;;;;;12.02;9.07;;;;;;;20.72;63.32;102589.50;5056829;28;20036;-74
2022/07/09 09:27:51;;;;;;;12.05;9.30;;;;;;;20.71;64.28;102588.63;5060051;28;20024;-75
2022/07/09 09:30:17;;;;;;;11.70;8.48;;;;;;;20.73;63.15;102575.34;5060382;28;20041;-74
2022/07/09 09:32:42;;;;;;;13.95;8.38;;;;;;;20.72;63.91;102578.94;5057715;28;20013;-74
2022/07/09 09:35:08;;;;;;;12.05;9.07;;;;;;;20.75;63.83;102586.75;5059809;28;20043;-74
2022/07/09 09:37:33;;;;;;;12.50;8.48;;;;;;;20.75;62.93;102589.38;5059716;28;20493;-74
2022/07/09 09:39:58;;;;;;;12.18;9.35;;;;;;;20.70;62.98;102586.91;5056252;28;20056;-75
2022/07/09 09:42:27;;;;;;;11.73;8.98;;;;;;;20.68;63.10;102585.25;5060754;28;20086;-75
2022/07/09 09:44:58;;;;;;;12.43;9.52;;;;;;;20.64;63.75;102581.88;5054114;28;20098;-75
2022/07/09 09:47:24;;;;;;;13.02;9.30;;;;;;;20.62;64.10;102586.38;5058609;28;20035;-74
2022/07/09 09:49:50;;;;;;;14.60;9.55;;;;;;;20.58;64.24;102592.69;5018455;28;20116;-75
2022/07/09 09:52:18;;;;;;;13.98;9.45;;;;;;;20.55;64.05;102598.09;5049664;28;20036;-75
2022/07/09 09:54:47;;;;;;;10.60;9.20;;;;;;;20.49;64.01;102593.09;5060302;28;20115;-75
2022/07/09 09:57:13;;;;;;;11.30;8.52;;;;;;;20.38;64.04;102589.06;5053363;28;20052;-75
2022/07/09 09:59:45;;;;;;;12.05;9.73;;;;;;;20.38;64.51;102585.56;5054975;28;20064;-76
2022/07/09 10:02:10;;;;;;;11.77;8.20;;;;;;;20.47;64.74;102570.22;5053439;28;20039;-75
2022/07/09 10:04:37;;;;;;;11.60;8.13;;;;;;;20.67;64.37;102570.31;5019320;28;20037;-75
2022/07/09 10:07:04;;;;;;;11.57;8.10;;;;;;;20.83;62.84;102574.06;5051565;28;20050;-74
2022/07/09 10:09:30;;;;;;;9.95;7.13;;;;;;;20.94;62.83;102568.34;5052253;28;20051;-76
2022/07/09 10:11:55;;;;;;;9.00;6.93;;;;;;;21.05;62.38;102576.66;5047375;28;20472;-75
2022/07/09 10:14:23;;;;;;;12.45;7.80;;;;;;;21.13;63.27;102567.56;5047342;28;20039;-75
2022/07/09 10:16:50;;;;;;;13.00;9.00;;;;;;;21.15;61.43;102565.72;5053067;28;20037;-75
2022/07/09 10:19:29;;;;;;;9.63;8.02;;;;;;;21.15;62.22;102563.06;5052443;28;20033;-75
2022/07/09 10:21:56;;;;;;;11.02;8.25;;;;;;;21.15;62.75;102558.59;5047645;28;20045;-76
2022/07/09 10:24:25;;;;;;;9.07;7.93;;;;;;;21.22;63.36;102553.91;5047829;28;20082;-76
2022/07/09 10:26:51;;;;;;;10.05;7.68;;;;;;;21.29;61.80;102557.16;5052706;28;20032;-75
2022/07/09 10:29:21;;;;;;;12.05;7.97;;;;;;;21.33;62.42;102559.63;5054992;28;20089;-75
2022/07/09 10:31:47;;;;;;;11.13;8.37;;;;;;;21.32;62.81;102563.19;5058112;28;20020;-76
2022/07/09 10:34:40;;;;;;;11.32;8.07;;;;;;;21.34;63.14;102569.28;5055012;28;20375;-76
2022/07/09 10:37:06;;;;;;;12.52;8.43;;;;;;;21.29;62.42;102558.03;5021256;28;20079;-75
2022/07/09 10:39:32;;;;;;;12.38;7.95;;;;;;;21.27;63.00;102554.56;5052486;28;20147;-75
2022/07/09 10:42:06;;;;;;;11.68;7.28;;;;;;;21.28;61.71;102558.94;5051913;28;20574;-75
2022/07/09 10:44:35;;;;;;;10.10;6.88;;;;;;;21.28;60.84;102553.66;5051970;28;20444;-75
2022/07/09 10:47:01;;;;;;;10.90;7.90;;;;;;;21.23;61.76;102561.81;5053643;28;20032;-75
2022/07/09 10:49:27;;;;;;;10.38;7.03;;;;;;;21.25;61.50;102561.72;5052769;28;20043;-75
2022/07/09 10:51:59;;;;;;;7.68;5.93;;;;;;;21.31;61.24;102550.88;5051467;28;20028;-75
2022/07/09 10:54:25;;;;;;;7.50;5.50;;;;;;;21.39;59.98;102550.53;5051771;28;20108;-75
2022/07/09 10:56:52;;;;;;;8.25;6.32;;;;;;;21.42;61.45;102560.13;5052158;28;20123;-75
2022/07/09 10:59:18;;;;;;;10.27;6.97;;;;;;;21.43;61.49;102564.47;5049118;28;20032;-76
2022/07/09 11:01:43;;;;;;;10.73;7.82;;;;;;;21.44;63.22;102558.25;5051257;28;20047;-76
2022/07/09 11:04:09;;;;;;;10.00;6.53;;;;;;;21.45;61.66;102560.84;5051535;28;20559;-76
2022/07/09 11:06:45;;;;;;;5.60;4.70;;;;;;;21.49;60.92;102566.88;5050114;28;20036;-75
2022/07/09 11:09:14;;;;;;;5.50;4.47;;;;;;;21.51;60.35;102567.66;5048280;28;20775;-76
2022/07/09 11:11:43;;;;;;;5.40;4.22;;;;;;;21.52;59.24;102572.88;5047629;28;20483;-76
2022/07/09 11:14:09;;;;;;;6.10;3.50;;;;;;;21.51;59.46;102567.66;5049207;28;20503;-76
2022/07/09 11:16:35;;;;;;;5.75;3.60;;;;;;;21.49;58.65;102564.22;5047407;28;20115;-76